createdAt,value
2023-02-08T00:02:16.534Z,14.90
2023-02-08T00:06:23.599Z,19.23
2023-02-08T00:10:35.076Z,21.45
2023-02-08T00:14:40.058Z,22.90
2023-02-08T00:18:44.026Z,20.00
2023-02-08T00:22:52.532Z,17.88
2023-02-08T00:26:58.436Z,13.32
2023-02-08T00:31:04.340Z,20.48
2023-02-08T00:35:11.512Z,15.18
2023-02-08T00:39:15.709Z,16.48
2023-02-08T00:43:21.261Z,17.75
2023-02-08T00:47:27.930Z,18.45
2023-02-08T00:51:35.239Z,23.75
2023-02-08T00:55:43.972Z,17.73
2023-02-08T00:59:48.700Z,19.98
2023-02-08T01:03:52.740Z,18.08
2023-02-08T01:07:58.609Z,19.38
2023-02-08T01:12:03.013Z,20.58
2023-02-08T01:16:17.057Z,19.15
2023-02-08T01:20:26.206Z,22.35
2023-02-08T01:24:32.396Z,15.02
2023-02-08T01:28:36.906Z,19.23
2023-02-08T01:32:42.528Z,21.33
2023-02-08T01:36:46.560Z,20.80
2023-02-08T01:40:53.546Z,18.38
2023-02-08T01:45:30.435Z,16.33
2023-02-08T01:49:37.096Z,20.33
2023-02-08T01:53:42.257Z,23.63
2023-02-08T01:57:52.651Z,18.67
2023-02-08T02:06:23.557Z,16.88
2023-02-08T02:10:35.884Z,16.52
2023-02-08T02:14:40.884Z,14.77
2023-02-08T02:23:32.434Z,15.82
2023-02-08T02:28:17.754Z,15.15
2023-02-08T02:32:38.796Z,14.60
2023-02-08T02:36:51.507Z,21.75
2023-02-08T02:41:07.943Z,22.42
2023-02-08T02:45:18.079Z,17.05
2023-02-08T02:49:27.543Z,17.60
2023-02-08T02:53:45.317Z,20.58
2023-02-08T02:57:50.432Z,16.05
2023-02-08T03:01:57.552Z,20.50
2023-02-08T03:06:05.982Z,18.75
2023-02-08T03:10:29.256Z,21.00
2023-02-08T03:14:38.790Z,13.88
2023-02-08T03:18:52.328Z,15.68
2023-02-08T03:23:03.429Z,14.35
2023-02-08T03:27:10.200Z,18.40
2023-02-08T03:31:20.693Z,18.40
2023-02-08T03:35:28.159Z,21.00
2023-02-08T03:39:38.065Z,14.38
2023-02-08T03:43:57.946Z,17.17
2023-02-08T03:48:04.008Z,17.45
2023-02-08T03:52:10.628Z,18.65
2023-02-08T03:56:18.179Z,15.65
2023-02-08T04:00:23.129Z,17.00
2023-02-08T04:04:34.589Z,16.67
2023-02-08T04:08:39.481Z,19.27
2023-02-08T04:16:55.132Z,16.77
2023-02-08T04:21:02.388Z,13.20
2023-02-08T04:25:10.098Z,18.90
2023-02-08T04:29:16.064Z,15.88
2023-02-08T04:33:25.402Z,20.55
2023-02-08T04:37:30.235Z,18.67
2023-02-08T04:41:34.946Z,20.67
2023-02-08T04:45:43.490Z,16.65
2023-02-08T04:49:50.695Z,17.42
2023-02-08T04:54:04.323Z,18.52
2023-02-08T04:58:09.245Z,15.38
2023-02-08T05:02:17.876Z,16.52
2023-02-08T05:06:22.302Z,16.75
2023-02-08T05:10:26.284Z,16.00
2023-02-08T05:14:32.366Z,20.80
2023-02-08T05:19:00.866Z,16.73
2023-02-08T05:23:13.728Z,31.90
2023-02-08T05:27:18.150Z,30.40
2023-02-08T05:31:27.194Z,26.48
2023-02-08T05:35:43.534Z,36.97
2023-02-08T05:39:48.332Z,30.50
2023-02-08T05:43:55.245Z,27.35
2023-02-08T05:48:01.885Z,27.58
2023-02-08T05:52:08.571Z,21.15
2023-02-08T05:56:13.034Z,21.05
2023-02-08T06:00:19.237Z,21.65
2023-02-08T06:04:32.189Z,17.55
2023-02-08T06:08:37.110Z,16.13
2023-02-08T06:12:40.628Z,18.98
2023-02-08T06:16:49.140Z,25.25
2023-02-08T06:20:55.391Z,24.00
2023-02-08T06:25:00.538Z,24.55
2023-02-08T06:33:07.509Z,25.20
2023-02-08T06:37:10.633Z,25.92
2023-02-08T06:41:18.579Z,26.88
2023-02-08T06:45:27.433Z,24.80
2023-02-08T06:49:31.236Z,17.02
2023-02-08T06:53:34.849Z,21.73
2023-02-08T06:57:43.031Z,19.08
2023-02-08T07:01:54.959Z,16.50
2023-02-08T07:06:05.031Z,23.45
2023-02-08T07:10:09.247Z,22.80
2023-02-08T07:14:18.818Z,16.50
2023-02-08T07:18:22.548Z,15.80
2023-02-08T07:22:25.914Z,24.75
2023-02-08T07:26:29.520Z,18.67
2023-02-08T07:30:34.004Z,19.95
2023-02-08T07:34:40.822Z,17.65
2023-02-08T07:38:45.222Z,16.05
2023-02-08T07:42:52.081Z,14.30
2023-02-08T07:46:56.947Z,22.45
2023-02-08T07:51:00.354Z,17.20
2023-02-08T07:55:03.794Z,13.82
2023-02-08T07:59:10.320Z,17.10
2023-02-08T08:03:15.855Z,12.60
2023-02-08T08:07:22.486Z,12.43
2023-02-08T08:11:28.196Z,16.27
2023-02-08T08:15:34.295Z,18.95
2023-02-08T08:19:39.361Z,11.40
2023-02-08T08:23:44.349Z,15.18
2023-02-08T08:27:47.004Z,13.77
2023-02-08T08:31:49.727Z,15.00
2023-02-08T08:36:00.560Z,13.57
2023-02-08T08:40:08.794Z,13.40
2023-02-08T08:44:15.055Z,13.90
2023-02-08T08:48:20.173Z,9.30
2023-02-08T08:52:25.645Z,8.20
2023-02-08T08:56:29.763Z,11.85
2023-02-08T09:00:34.439Z,10.18
2023-02-08T09:08:47.323Z,9.75
2023-02-08T09:12:50.073Z,7.78
2023-02-08T09:16:53.522Z,7.70
2023-02-08T09:20:57.527Z,10.32
2023-02-08T09:25:05.339Z,8.70
2023-02-08T09:29:14.780Z,10.77
2023-02-08T09:33:20.331Z,10.05
2023-02-08T09:37:23.067Z,3.83
2023-02-08T09:41:37.785Z,11.82
2023-02-08T09:45:59.844Z,7.25
2023-02-08T09:50:06.250Z,10.60
2023-02-08T09:54:14.470Z,7.63
2023-02-08T09:58:27.185Z,4.68
2023-02-08T10:02:32.013Z,7.45
2023-02-08T10:06:34.940Z,6.43
2023-02-08T10:10:44.382Z,7.20
2023-02-08T10:15:03.689Z,7.63
2023-02-08T10:19:13.325Z,6.65
2023-02-08T10:23:33.062Z,8.73
2023-02-08T10:27:45.554Z,7.55
2023-02-08T10:32:14.142Z,5.95
2023-02-08T10:36:22.855Z,7.68
2023-02-08T10:40:51.836Z,6.55
2023-02-08T10:45:22.518Z,6.00
2023-02-08T10:49:40.714Z,7.97
2023-02-08T10:53:48.647Z,7.07
2023-02-08T10:57:54.688Z,7.18
2023-02-08T11:02:02.834Z,9.50
2023-02-08T11:06:37.880Z,6.65
2023-02-08T11:10:44.057Z,6.90
2023-02-08T11:14:53.475Z,8.18
2023-02-08T11:19:01.717Z,9.52
2023-02-08T11:23:07.312Z,6.90
2023-02-08T11:27:38.102Z,5.50
2023-02-08T11:31:42.506Z,9.30
2023-02-08T11:36:04.835Z,7.20
2023-02-08T11:44:54.956Z,7.80
2023-02-08T11:48:59.664Z,9.43
2023-02-08T11:53:07.757Z,7.50
2023-02-08T11:57:21.780Z,9.35
2023-02-08T12:01:31.971Z,7.45
2023-02-08T12:05:41.742Z,5.32
2023-02-08T12:10:21.822Z,5.85
2023-02-08T12:14:39.955Z,6.63
2023-02-08T12:18:59.075Z,7.65
2023-02-08T12:23:39.647Z,5.95
2023-02-08T12:27:48.130Z,7.05
2023-02-08T12:32:07.434Z,5.72
2023-02-08T12:36:35.244Z,8.00
2023-02-08T12:40:51.305Z,5.13
2023-02-08T12:45:06.479Z,9.20
2023-02-08T12:49:33.790Z,6.90
2023-02-08T12:53:40.231Z,7.80
2023-02-08T12:57:44.731Z,6.70
2023-02-08T13:01:53.609Z,8.05
2023-02-08T13:06:07.606Z,6.20
2023-02-08T13:10:17.706Z,13.15
2023-02-08T13:14:35.288Z,7.75
2023-02-08T13:18:50.798Z,9.02
2023-02-08T13:22:58.774Z,6.53
2023-02-08T13:27:03.744Z,6.72
2023-02-08T13:31:19.349Z,9.32
2023-02-08T13:35:31.010Z,5.82
2023-02-08T13:39:49.768Z,5.43
2023-02-08T13:43:55.955Z,5.40
2023-02-08T13:48:02.108Z,6.18
2023-02-08T13:52:10.861Z,6.65
2023-02-08T13:56:40.225Z,6.80
2023-02-08T14:01:05.146Z,6.88
2023-02-08T14:05:40.133Z,5.88
2023-02-08T14:09:56.850Z,5.97
2023-02-08T14:14:03.996Z,5.18
2023-02-08T14:18:26.211Z,5.97
2023-02-08T14:22:34.695Z,5.53
2023-02-08T14:26:39.308Z,7.65
2023-02-08T14:30:48.472Z,8.18
2023-02-08T14:35:03.075Z,6.32
2023-02-08T14:39:26.403Z,5.45
2023-02-08T14:43:33.603Z,6.38
2023-02-08T14:47:57.704Z,6.50
2023-02-08T14:52:06.273Z,6.32
2023-02-08T14:56:20.128Z,7.20
2023-02-08T15:00:25.684Z,8.10
2023-02-08T15:04:31.044Z,5.95
2023-02-08T15:08:34.782Z,5.72
2023-02-08T15:12:40.854Z,8.65
2023-02-08T15:16:44.815Z,7.53
2023-02-08T15:20:59.814Z,8.65
2023-02-08T15:25:22.059Z,10.45
2023-02-08T15:29:39.173Z,6.05
2023-02-08T15:33:48.830Z,6.53
2023-02-08T15:37:57.712Z,6.68
2023-02-08T15:42:01.760Z,6.60
2023-02-08T15:46:07.474Z,7.90
2023-02-08T15:50:18.715Z,8.13
2023-02-08T15:54:23.637Z,5.78
2023-02-08T15:58:30.863Z,9.07
2023-02-08T16:02:36.020Z,7.53
2023-02-08T16:06:49.017Z,9.63
2023-02-08T16:10:57.494Z,8.13
2023-02-08T16:15:03.467Z,11.48
2023-02-08T16:19:09.097Z,9.27
2023-02-08T16:23:25.168Z,12.60
2023-02-08T16:27:35.230Z,8.30
2023-02-08T16:31:40.398Z,9.23
2023-02-08T16:36:06.257Z,9.88
2023-02-08T16:40:50.291Z,10.48
2023-02-08T16:45:20.849Z,10.52
2023-02-08T16:49:48.471Z,9.38
2023-02-08T16:54:03.251Z,10.65
2023-02-08T16:58:35.463Z,11.95
2023-02-08T17:02:40.587Z,11.07
2023-02-08T17:06:45.967Z,11.50
2023-02-08T17:10:59.190Z,11.25
2023-02-08T17:15:05.967Z,13.20
2023-02-08T17:19:18.841Z,13.20
2023-02-08T17:23:41.172Z,11.43
2023-02-08T17:27:48.839Z,11.30
2023-02-08T17:31:59.687Z,11.60
2023-02-08T17:40:21.009Z,12.73
2023-02-08T17:44:32.625Z,17.55
2023-02-08T17:48:39.113Z,18.30
2023-02-08T17:52:44.492Z,16.25
2023-02-08T17:56:57.055Z,16.00
2023-02-08T18:01:00.864Z,13.55
2023-02-08T18:05:11.494Z,14.85
2023-02-08T18:09:18.110Z,12.10
2023-02-08T18:13:25.247Z,14.82
2023-02-08T18:17:30.659Z,13.60
2023-02-08T18:21:38.050Z,14.18
2023-02-08T18:25:45.070Z,15.05
2023-02-08T18:29:51.874Z,11.45
2023-02-08T18:34:04.970Z,12.68
2023-02-08T18:38:08.826Z,15.15
2023-02-08T18:42:15.266Z,13.45
2023-02-08T18:46:29.925Z,11.38
2023-02-08T18:50:40.469Z,12.15
2023-02-08T18:54:46.046Z,12.57
2023-02-08T18:58:59.324Z,10.60
2023-02-08T19:03:04.107Z,10.27
2023-02-08T19:07:08.244Z,10.45
2023-02-08T19:11:21.977Z,12.38
2023-02-08T19:19:48.573Z,22.52
2023-02-08T19:24:01.253Z,21.33
2023-02-08T19:28:05.950Z,23.30
2023-02-08T19:32:15.415Z,17.33
2023-02-08T19:36:27.239Z,23.35
2023-02-08T19:40:32.100Z,16.15
2023-02-08T19:48:40.672Z,20.25
2023-02-08T19:52:46.570Z,18.42
2023-02-08T19:56:54.815Z,18.77
2023-02-08T20:01:00.326Z,19.60
2023-02-08T20:05:06.746Z,22.27
2023-02-08T20:09:16.961Z,19.50
2023-02-08T20:13:23.322Z,28.00
2023-02-08T20:17:30.703Z,24.17
2023-02-08T20:21:39.879Z,24.02
2023-02-08T20:25:49.717Z,20.48
2023-02-08T20:29:58.168Z,19.88
2023-02-08T20:34:04.068Z,20.52
2023-02-08T20:38:10.822Z,29.73
2023-02-08T20:42:15.892Z,20.02
2023-02-08T20:46:28.715Z,26.05
2023-02-08T20:50:37.382Z,25.58
2023-02-08T20:54:53.071Z,26.55
2023-02-08T20:59:11.260Z,25.88
2023-02-08T21:03:21.168Z,22.27
2023-02-08T21:07:30.363Z,24.05
2023-02-08T21:11:48.992Z,27.63
2023-02-08T21:15:52.655Z,26.77
2023-02-08T21:19:59.704Z,26.10
2023-02-08T21:24:09.023Z,28.30
2023-02-08T21:28:21.398Z,27.25
2023-02-08T21:32:25.356Z,26.65
2023-02-08T21:36:30.190Z,29.52
2023-02-08T21:40:34.097Z,25.58
2023-02-08T21:44:39.766Z,31.73
2023-02-08T21:49:00.764Z,29.15
2023-02-08T21:53:21.875Z,34.40
2023-02-08T21:57:29.700Z,30.13
2023-02-08T22:01:35.334Z,31.63
2023-02-08T22:05:39.553Z,37.22
2023-02-08T22:09:43.872Z,30.95
2023-02-08T22:13:48.071Z,38.33
2023-02-08T22:17:56.584Z,34.55
2023-02-08T22:22:00.673Z,30.83
2023-02-08T22:26:09.218Z,32.58
2023-02-08T22:30:28.795Z,30.33
2023-02-08T22:34:34.346Z,25.40
2023-02-08T22:38:41.137Z,36.50
2023-02-08T22:42:53.536Z,25.35
2023-02-08T22:46:57.893Z,28.05
2023-02-08T22:51:07.524Z,33.83
2023-02-08T22:55:12.826Z,27.08
2023-02-08T22:59:16.577Z,33.90
2023-02-08T23:03:23.261Z,25.63
2023-02-08T23:07:29.128Z,28.40
2023-02-08T23:11:32.847Z,28.08
2023-02-08T23:15:39.343Z,23.83
2023-02-08T23:19:44.188Z,32.00
2023-02-08T23:23:50.582Z,27.85
2023-02-08T23:27:57.781Z,28.65
2023-02-08T23:32:03.170Z,30.58
2023-02-08T23:36:08.119Z,24.75
2023-02-08T23:40:18.091Z,21.58
2023-02-08T23:44:24.074Z,31.10
2023-02-08T23:48:30.357Z,41.80
2023-02-08T23:52:41.088Z,39.03
2023-02-08T23:56:46.546Z,47.80
